Time;durP1;ratioP1;P1;durP2;ratioP2;P2;SDS_P1;SDS_P2;PMS_P1;PMS_P2;Temp;Humidity;BMP_temperature;BMP_pressure;BME280_temperature;BME280_humidity;BME280_pressure;Samples;Min_cycle;Max_cycle;Signal;HPM_P1;HPM_P2
2022/11/21 00:00:46;;;;;;;;;2.00;2.00;;;;;10.08;80.51;2919.19;4862996;29;45547;-89
2022/11/21 00:03:11;;;;;;;;;5.33;2.00;;;;;10.27;80.43;2640.38;4862907;29;46532;-89
2022/11/21 00:05:42;;;;;;;;;4.00;1.67;;;;;11.12;80.50;2133.03;4862848;29;45575;-88
2022/11/21 00:08:13;;;;;;;;;3.00;2.00;;;;;11.11;80.65;2822.44;4846159;29;45474;-90
2022/11/21 00:10:40;;;;;;;;;2.67;2.67;;;;;11.13;80.58;2445.34;4846454;29;45428;-89
2022/11/21 00:13:07;;;;;;;;;6.00;1.67;;;;;10.22;80.51;2850.41;4866246;29;45702;-88
2022/11/21 00:15:34;;;;;;;;;3.00;2.00;;;;;10.06;80.45;2542.34;4871089;29;45454;-90
2022/11/21 00:18:01;;;;;;;;;2.00;1.00;;;;;10.71;80.32;2470.22;4859153;29;45763;-89
2022/11/21 00:20:27;;;;;;;;;3.00;2.00;;;;;10.50;80.49;2912.91;4855237;29;45839;-90
2022/11/21 00:22:52;;;;;;;;;4.67;2.67;;;;;10.77;80.88;3313.41;4861239;29;47633;-89
2022/11/21 00:25:18;;;;;;;;;3.67;2.00;;;;;10.42;81.00;2914.66;4862571;29;45438;-89
2022/11/21 00:27:44;;;;;;;;;3.00;2.00;;;;;10.80;80.47;3204.44;4862574;29;45600;-89
2022/11/21 00:30:10;;;;;;;;;3.00;1.00;;;;;11.24;80.56;2300.59;4846213;29;45644;-89
2022/11/21 00:32:35;;;;;;;;;2.00;2.00;;;;;10.46;80.29;2267.88;4850236;29;45502;-90
2022/11/21 00:35:01;;;;;;;;;3.00;2.00;;;;;10.01;80.19;2492.56;4862773;29;45587;-89
2022/11/21 00:37:36;;;;;;;;;2.00;2.00;;;;;10.55;80.67;1514.88;4846169;29;45749;-87
2022/11/21 00:40:03;;;;;;;;;2.00;1.00;;;;;11.27;80.44;1811.63;4846565;29;45705;-88
2022/11/21 00:42:28;;;;;;;;;3.33;1.67;;;;;11.32;80.87;2506.88;4862336;29;46488;-90
2022/11/21 00:44:54;;;;;;;;;2.67;1.33;;;;;11.34;80.97;1780.91;4862083;29;45403;-88
2022/11/21 00:47:19;;;;;;;;;4.67;3.00;;;;;10.74;80.21;2111.69;4861237;29;45499;-88
2022/11/21 00:49:45;;;;;;;;;3.00;1.00;;;;;10.10;80.22;1277.81;4862896;29;45575;-89
2022/11/21 00:52:10;;;;;;;;;4.33;2.00;;;;;10.80;80.29;1144.91;4845424;29;48274;-89
2022/11/21 00:54:36;;;;;;;;;3.33;2.00;;;;;9.99;80.28;1097.88;4862564;29;45640;-89
2022/11/21 00:57:04;;;;;;;;;5.00;2.00;;;;;10.34;80.42;1115.81;4861314;29;45594;-88
2022/11/21 00:59:29;;;;;;;;;3.33;1.00;;;;;10.10;80.70;1698.56;4845756;29;45548;-89
2022/11/21 01:01:55;;;;;;;;;3.00;2.00;;;;;10.98;80.82;1957.63;4862504;29;46578;-89
2022/11/21 01:04:21;;;;;;;;;4.33;1.00;;;;;10.33;80.75;2253.78;4862775;29;45722;-89
2022/11/21 01:06:47;;;;;;;;;4.00;2.33;;;;;11.27;80.75;2129.06;4863140;29;46027;-89
2022/11/21 01:09:12;;;;;;;;;4.33;2.00;;;;;9.81;80.79;3301.00;4863228;29;45728;-89
2022/11/21 01:11:38;;;;;;;;;2.00;2.00;;;;;11.19;80.57;3510.41;4861403;29;45443;-90
2022/11/21 01:16:38;;;;;;;;;2.67;1.33;;;;;11.10;80.50;3972.66;5568024;23;46290;-93
2022/11/21 01:19:04;;;;;;;;;1.33;1.33;;;;;11.09;80.89;4368.28;4865067;29;45424;-92
2022/11/21 01:21:30;;;;;;;;;2.00;2.00;;;;;11.18;80.99;5124.47;4881798;29;46494;-93
2022/11/21 01:23:58;;;;;;;;;4.00;2.00;;;;;11.11;80.99;5347.47;4882229;29;45417;-93
2022/11/21 01:26:28;;;;;;;;;2.33;2.33;;;;;11.09;81.02;5532.00;4881638;29;45430;-94
2022/11/21 01:28:57;;;;;;;;;5.67;3.00;;;;;11.28;81.25;6159.88;4864738;29;45392;-93
2022/11/21 01:31:29;;;;;;;;;6.00;3.00;;;;;11.27;81.42;6568.75;4881705;29;45739;-93
2022/11/21 01:33:57;;;;;;;;;5.33;3.00;;;;;10.84;81.30;6882.31;4881886;29;45568;-93
2022/11/21 01:36:27;;;;;;;;;2.00;2.00;;;;;10.91;81.13;6318.34;4880221;29;45564;-91
2022/11/21 01:38:57;;;;;;;;;2.00;2.00;;;;;11.28;81.34;6532.44;4878686;29;45588;-91
2022/11/21 01:41:27;;;;;;;;;5.00;3.00;;;;;11.26;81.23;6368.00;4875165;29;45875;-92
2022/11/21 01:43:53;;;;;;;;;2.33;2.33;;;;;11.24;81.24;6479.69;4882210;29;45431;-93
2022/11/21 01:46:20;;;;;;;;;2.67;2.67;;;;;11.23;81.52;6508.13;4882528;29;45466;-92
2022/11/21 01:48:51;;;;;;;;;2.00;1.00;;;;;11.21;81.38;6533.94;4875229;29;45948;-93
2022/11/21 01:51:24;;;;;;;;;4.00;2.00;;;;;10.74;81.44;6459.03;4882876;29;45309;-94
2022/11/21 01:53:58;;;;;;;;;2.67;2.67;;;;;11.17;81.14;6233.81;4885776;29;45873;-93
2022/11/21 01:56:26;;;;;;;;;3.00;1.33;;;;;10.75;81.33;6940.72;4882292;29;45470;-92
2022/11/21 01:58:55;;;;;;;;;3.00;1.67;;;;;9.37;81.28;6879.50;4883055;29;45466;-93
2022/11/21 02:01:21;;;;;;;;;4.00;2.00;;;;;10.81;81.54;7045.78;4883010;29;45638;-93
2022/11/21 02:03:47;;;;;;;;;2.00;2.00;;;;;10.58;81.40;7182.66;4882532;29;45430;-91
2022/11/21 02:06:13;;;;;;;;;2.00;2.00;;;;;9.79;81.35;7850.81;4882532;29;45430;-92
2022/11/21 02:08:41;;;;;;;;;2.00;1.00;;;;;10.98;81.51;7119.03;4893911;29;45433;-94
2022/11/21 02:11:31;;;;;;;;;3.67;2.00;;;;;11.13;81.38;7207.44;4881639;29;46213;-92
2022/11/21 02:13:56;;;;;;;;;1.00;1.00;;;;;10.62;81.38;6886.53;4882454;29;45489;-92
2022/11/21 02:16:23;;;;;;;;;5.00;1.00;;;;;10.23;81.37;7179.44;4865593;29;45355;-92
2022/11/21 02:18:48;;;;;;;;;2.00;2.00;;;;;11.11;81.58;7774.97;4882816;29;46521;-93
2022/11/21 02:21:32;;;;;;;;;3.67;3.00;;;;;11.09;81.59;7670.50;4882109;29;46014;-93
2022/11/21 02:24:18;;;;;;;;;5.00;2.33;;;;;11.12;81.63;7796.09;4874534;29;45531;-92
2022/11/21 02:26:47;;;;;;;;;1.00;1.00;;;;;10.60;81.37;7464.13;4876630;29;45272;-92
2022/11/21 02:29:13;;;;;;;;;3.00;2.00;;;;;10.81;81.43;7478.03;4884982;29;45438;-92
2022/11/21 02:31:38;;;;;;;;;5.67;4.00;;;;;11.11;81.82;8194.50;4884854;29;46160;-92
2022/11/21 02:34:04;;;;;;;;;3.33;3.00;;;;;9.17;81.75;9071.22;4881103;29;45455;-92
2022/11/21 02:36:45;;;;;;;;;4.00;2.67;;;;;11.08;81.79;9358.94;4867278;29;45476;-92
2022/11/21 02:39:17;;;;;;;;;2.00;2.00;;;;;11.12;81.85;9190.25;4885827;29;45450;-93
2022/11/21 02:41:50;;;;;;;;;2.00;2.00;;;;;10.85;81.95;8893.09;4898627;29;47671;-92
2022/11/21 02:44:25;;;;;;;;;3.00;2.67;;;;;10.58;81.67;8518.19;4874853;29;45331;-93
2022/11/21 02:46:51;;;;;;;;;3.33;3.33;;;;;10.53;81.46;8764.69;4885467;29;45462;-92
2022/11/21 02:49:56;;;;;;;;;3.33;2.33;;;;;10.75;81.72;8771.50;4885953;29;45327;-93
2022/11/21 02:52:23;;;;;;;;;3.00;3.00;;;;;10.70;81.84;7895.50;4866782;29;45347;-93
2022/11/21 02:54:48;;;;;;;;;5.33;3.00;;;;;10.96;81.77;8139.69;4880400;29;45727;-93
2022/11/21 02:57:13;;;;;;;;;3.33;3.00;;;;;10.93;81.65;8154.75;4885019;29;45237;-93
2022/11/21 02:59:38;;;;;;;;;2.67;2.00;;;;;10.41;81.57;8507.22;4890384;29;45651;-93
2022/11/21 03:02:04;;;;;;;;;2.00;2.00;;;;;10.53;81.63;8465.16;4885163;29;45519;-92
2022/11/21 03:04:30;;;;;;;;;2.00;2.00;;;;;11.12;81.49;7895.09;4884540;29;45575;-93
2022/11/21 03:06:55;;;;;;;;;4.00;3.00;;;;;9.90;81.39;8430.16;4885255;29;45328;-92
2022/11/21 03:09:21;;;;;;;;;3.00;1.67;;;;;9.40;81.77;8425.97;4885030;29;45527;-93
2022/11/21 03:11:47;;;;;;;;;5.00;2.00;;;;;10.01;81.77;8008.16;4884595;29;45603;-92
2022/11/21 03:14:12;;;;;;;;;6.00;3.00;;;;;11.12;81.38;7655.41;4884732;29;45401;-92
2022/11/21 03:16:38;;;;;;;;;4.67;1.33;;;;;11.11;81.43;7321.72;4884342;29;45355;-92
2022/11/21 03:19:03;;;;;;;;;3.67;2.00;;;;;10.99;81.67;7150.38;4885004;29;45654;-92
2022/11/21 03:21:29;;;;;;;;;3.00;2.00;;;;;10.59;81.48;7518.63;4884781;29;46590;-92
2022/11/21 03:23:54;;;;;;;;;2.00;2.00;;;;;11.14;81.26;7168.44;4883860;29;45462;-91
2022/11/21 03:26:20;;;;;;;;;3.00;1.67;;;;;10.19;81.15;7269.88;4884387;29;45405;-91
2022/11/21 03:28:46;;;;;;;;;3.00;2.00;;;;;10.30;81.38;7594.31;4885148;29;45752;-92
2022/11/21 03:31:11;;;;;;;;;1.67;1.67;;;;;11.18;81.40;6880.00;4867391;29;47573;-91
2022/11/21 03:33:37;;;;;;;;;5.67;3.00;;;;;11.19;81.25;6572.78;4883710;29;45525;-91
2022/11/21 03:36:03;;;;;;;;;3.00;2.00;;;;;11.20;81.08;6231.59;4882784;29;45545;-92
2022/11/21 03:38:28;;;;;;;;;4.67;4.33;;;;;11.14;80.94;5655.09;4883526;29;45609;-91
2022/11/21 03:40:54;;;;;;;;;4.00;3.00;;;;;10.48;80.94;5107.34;4883018;29;46623;-91
2022/11/21 03:43:20;;;;;;;;;1.67;1.67;;;;;9.70;81.03;5201.03;4883447;29;45512;-92
2022/11/21 03:45:46;;;;;;;;;3.00;2.00;;;;;11.13;81.17;5337.31;4883536;29;45399;-92
2022/11/21 03:48:13;;;;;;;;;6.00;2.67;;;;;10.84;81.06;5112.16;4883647;29;45350;-91
2022/11/21 03:50:42;;;;;;;;;4.33;2.33;;;;;10.78;80.82;5155.56;4882669;29;45671;-91
2022/11/21 03:53:07;;;;;;;;;2.33;2.00;;;;;10.96;80.98;4650.44;4882777;29;45464;-90
2022/11/21 03:55:32;;;;;;;;;3.00;1.67;;;;;11.17;80.90;4137.50;4883288;29;45337;-92
2022/11/21 03:57:58;;;;;;;;;4.00;3.00;;;;;11.25;80.66;3797.31;4884734;29;45551;-93
2022/11/21 04:00:24;;;;;;;;;4.00;4.00;;;;;11.24;80.90;3443.22;4883995;29;46122;-92
2022/11/21 04:02:49;;;;;;;;;2.33;1.00;;;;;10.59;80.78;3982.47;4884246;29;45439;-93
2022/11/21 04:05:15;;;;;;;;;2.67;2.00;;;;;10.79;80.68;3820.91;4871576;29;45425;-91
2022/11/21 04:07:41;;;;;;;;;3.33;3.33;;;;;10.91;80.67;3353.91;4879954;29;45350;-93
2022/11/21 04:10:07;;;;;;;;;7.33;3.00;;;;;11.11;80.98;3944.22;4883910;29;46951;-91
2022/11/21 04:12:32;;;;;;;;;4.67;2.00;;;;;11.17;80.76;3937.03;4883698;29;45439;-92
2022/11/21 04:14:57;;;;;;;;;4.00;2.67;;;;;10.93;80.87;3973.41;4883870;29;45324;-92
2022/11/21 04:17:23;;;;;;;;;3.33;3.00;;;;;11.12;80.93;3715.28;4884411;29;45680;-91
2022/11/21 04:19:49;;;;;;;;;2.33;2.33;;;;;11.09;80.71;3340.16;4881340;29;46276;-92
2022/11/21 04:22:14;;;;;;;;;3.00;3.00;;;;;10.50;80.86;3625.28;4882880;29;45560;-91
2022/11/21 04:24:39;;;;;;;;;2.33;2.33;;;;;10.45;80.66;2808.38;4866358;29;45693;-91
2022/11/21 04:27:05;;;;;;;;;5.67;2.00;;;;;10.90;80.29;1512.25;4883075;29;45536;-92
2022/11/21 04:29:31;;;;;;;;;3.00;2.00;;;;;10.61;80.16;1978.00;4879830;29;46623;-92
2022/11/21 04:31:57;;;;;;;;;2.67;2.00;;;;;10.63;80.51;4183.22;4881531;29;45547;-91
2022/11/21 04:34:22;;;;;;;;;2.67;2.67;;;;;10.53;80.88;4195.06;4882897;29;45459;-91
2022/11/21 04:36:48;;;;;;;;;2.00;2.00;;;;;10.89;80.71;3697.13;4882712;29;45533;-92
2022/11/21 04:39:13;;;;;;;;;4.00;2.00;;;;;10.74;80.71;3157.09;4865616;29;47081;-92
2022/11/21 04:41:38;;;;;;;;;6.33;3.00;;;;;10.81;80.45;2637.56;4881081;29;45446;-91
2022/11/21 04:44:04;;;;;;;;;4.00;4.00;;;;;9.97;80.38;1946.81;4882670;29;45476;-92
2022/11/21 04:46:30;;;;;;;;;6.33;2.67;;;;;10.03;80.75;4303.59;4882895;29;45437;-91
2022/11/21 04:48:56;;;;;;;;;2.67;1.33;;;;;10.09;81.12;6100.63;4882695;29;45369;-92
2022/11/21 04:51:21;;;;;;;;;0.00;0.00;;;;;10.46;81.25;7495.63;4881899;29;45469;-91
2022/11/21 04:53:47;;;;;;;;;4.67;3.00;;;;;9.78;81.61;8349.78;4865636;29;45426;-90
2022/11/21 04:56:15;;;;;;;;;6.00;3.00;;;;;10.15;81.66;8812.00;4883065;29;45471;-92
2022/11/21 04:58:43;;;;;;;;;3.33;3.00;;;;;9.98;81.74;8793.06;4891417;29;45549;-93
2022/11/21 05:01:08;;;;;;;;;2.67;2.67;;;;;10.57;81.71;9150.88;4882629;29;45501;-92
2022/11/21 05:03:35;;;;;;;;;5.33;2.00;;;;;10.40;81.97;10142.00;4882507;29;45797;-93
2022/11/21 05:06:00;;;;;;;;;4.67;2.33;;;;;10.31;81.65;10421.47;4882056;29;45354;-92
2022/11/21 05:08:25;;;;;;;;;6.00;3.00;;;;;10.67;81.97;10210.41;4883045;29;46134;-91
2022/11/21 05:13:35;;;;;;;;;6.33;3.67;;;;;10.11;82.10;11174.59;4872853;29;45638;-92
2022/11/21 05:16:01;;;;;;;;;4.33;4.00;;;;;10.22;82.36;11906.41;4882560;29;45579;-93
2022/11/21 05:18:26;;;;;;;;;7.67;5.33;;;;;10.43;82.62;12463.88;4882347;29;45385;-93
2022/11/21 05:20:52;;;;;;;;;4.00;4.00;;;;;10.62;82.79;12791.84;4882057;29;45352;-91
2022/11/21 05:23:17;;;;;;;;;8.00;2.00;;;;;9.03;82.39;12743.53;4882350;29;45588;-91
2022/11/21 05:25:43;;;;;;;;;4.00;4.00;;;;;10.11;82.56;12786.72;4882531;29;45506;-91
2022/11/21 05:28:08;;;;;;;;;4.33;3.33;;;;;10.34;82.79;13222.56;4882103;29;46189;-92
2022/11/21 05:30:36;;;;;;;;;5.00;5.00;;;;;9.09;82.52;13603.34;4882722;29;46381;-92
2022/11/21 05:33:02;;;;;;;;;3.33;2.33;;;;;10.44;82.59;13256.41;4882410;29;45576;-91
2022/11/21 05:35:27;;;;;;;;;6.67;3.67;;;;;10.33;82.51;13115.31;4881986;29;45540;-90
2022/11/21 05:37:56;;;;;;;;;5.00;2.00;;;;;10.20;82.54;13239.50;4864745;29;47912;-91
2022/11/21 05:40:22;;;;;;;;;4.33;3.00;;;;;9.88;82.52;12991.72;4864213;29;45976;-92
2022/11/21 05:45:32;;;;;;;;;3.67;3.67;;;;;10.06;83.03;13772.63;4881144;29;45471;-91
2022/11/21 05:47:58;;;;;;;;;9.00;3.00;;;;;10.67;82.52;13452.81;4864649;29;47127;-91
2022/11/21 05:50:23;;;;;;;;;4.00;3.67;;;;;10.05;82.54;13761.94;4863724;29;45523;-91
2022/11/21 05:52:49;;;;;;;;;8.00;4.67;;;;;10.58;82.45;13314.78;4880697;29;45527;-91
2022/11/21 05:55:15;;;;;;;;;7.00;6.00;;;;;10.75;82.60;13520.19;4864303;29;45592;-91
2022/11/21 05:57:40;;;;;;;;;4.00;4.00;;;;;10.58;82.76;13452.94;4880426;29;47321;-91
2022/11/21 06:00:12;;;;;;;;;5.00;5.00;;;;;10.80;82.40;13265.69;4880616;29;45457;-90
2022/11/21 06:05:21;;;;;;;;;4.00;4.00;;;;;10.45;82.37;12766.69;4873911;29;45369;-90
2022/11/21 06:07:47;;;;;;;;;6.00;4.00;;;;;10.15;82.06;12303.16;4868742;29;57623;-91
2022/11/21 06:10:12;;;;;;;;;5.00;5.00;;;;;10.46;82.23;12097.22;4880586;29;45387;-91
2022/11/21 06:12:38;;;;;;;;;6.33;4.00;;;;;10.39;82.18;11532.59;4862838;29;46854;-91
2022/11/21 06:15:03;;;;;;;;;7.67;4.67;;;;;10.49;82.22;11681.06;4879791;29;45469;-92
2022/11/21 06:17:28;;;;;;;;;5.00;4.00;;;;;10.69;81.69;10932.63;4878570;29;45505;-92
2022/11/21 06:19:54;;;;;;;;;4.33;4.33;;;;;10.10;81.92;10843.72;4885532;29;45775;-92
2022/11/21 06:22:19;;;;;;;;;5.33;5.33;;;;;10.61;82.13;11235.50;4868443;29;46696;-93
2022/11/21 06:24:44;;;;;;;;;6.00;5.00;;;;;10.25;82.20;11123.19;4864608;29;45653;-92
2022/11/21 06:27:10;;;;;;;;;5.67;5.67;;;;;10.79;82.27;11307.53;4879071;29;50580;-94
2022/11/21 06:29:59;;;;;;;;;6.33;5.00;;;;;9.44;82.33;11994.16;4880762;29;45461;-92
2022/11/21 06:32:25;;;;;;;;;6.00;6.00;;;;;9.07;82.20;11621.25;4867956;29;45413;-92
2022/11/21 06:35:01;;;;;;;;;6.00;6.00;;;;;10.84;82.26;11699.75;4863904;29;45743;-94
2022/11/21 06:37:39;;;;;;;;;6.00;4.00;;;;;9.68;81.88;11169.94;4883527;29;48243;-90
2022/11/21 06:40:11;;;;;;;;;4.33;4.00;;;;;9.96;82.12;10931.72;4882108;29;45752;-92
2022/11/21 06:42:37;;;;;;;;;5.00;5.00;;;;;10.11;81.92;10966.44;4890149;29;45415;-95
2022/11/21 06:45:49;;;;;;;;;7.33;6.00;;;;;10.84;82.10;11796.22;4862759;29;45356;-88
2022/11/21 07:02:44;;;;;;;;;8.00;7.00;;;;;10.01;82.20;11789.38;5124239;23;45614;-94
2022/11/21 07:05:51;;;;;;;;;6.00;5.00;;;;;10.85;82.24;11436.69;4872825;29;45431;-93
2022/11/21 07:08:19;;;;;;;;;7.33;7.00;;;;;9.46;82.14;11893.31;4842877;29;45857;-94
2022/11/21 07:10:45;;;;;;;;;6.00;6.00;;;;;9.98;81.99;11122.19;4888396;29;45293;-94
2022/11/21 07:13:23;;;;;;;;;7.67;5.33;;;;;9.83;81.96;10007.72;4857539;29;45835;-95
2022/11/21 07:15:51;;;;;;;;;11.33;8.00;;;;;10.75;82.00;10326.72;4867769;29;45457;-93
2022/11/21 07:21:32;;;;;;;;;6.00;6.00;;;;;10.82;81.67;10523.72;4803489;29;45859;-87
2022/11/21 07:23:58;;;;;;;;;10.67;6.33;;;;;10.80;81.78;10101.00;4812646;29;45584;-92
2022/11/21 07:26:23;;;;;;;;;7.00;7.00;;;;;9.84;81.89;11329.84;4814029;29;45613;-93
2022/11/21 07:29:10;;;;;;;;;3.33;2.33;;;;;10.75;82.14;11637.63;4845914;23;45739;-94
2022/11/21 07:31:35;;;;;;;;;8.00;5.33;;;;;8.44;82.40;12585.53;4865149;29;45846;-96
2022/11/21 07:34:01;;;;;;;;;6.00;6.00;;;;;8.36;82.22;12703.09;4851457;29;45654;-96
2022/11/21 07:36:27;;;;;;;;;5.00;5.00;;;;;9.64;82.25;11226.34;4881337;29;45347;-96
2022/11/21 07:38:52;;;;;;;;;7.00;7.00;;;;;8.03;82.03;11407.38;5067585;23;45973;-96
2022/11/21 07:41:18;;;;;;;;;11.00;8.33;;;;;7.75;81.79;11719.91;4891167;29;45284;-95
2022/11/21 07:43:43;;;;;;;;;12.67;8.33;;;;;7.86;82.25;11727.62;4889585;29;45237;-95
2022/11/21 07:46:08;;;;;;;;;13.33;8.00;;;;;8.08;81.84;11641.91;4878427;29;45546;-96
2022/11/21 07:48:34;;;;;;;;;13.67;8.00;;;;;9.84;82.44;12769.34;4882811;29;45486;-93
2022/11/21 07:51:03;;;;;;;;;10.67;9.33;;;;;10.74;82.18;11843.41;4864697;29;47804;-90
2022/11/21 07:53:29;;;;;;;;;10.00;8.00;;;;;10.76;82.13;11030.56;4882295;29;45631;-92
2022/11/21 07:55:58;;;;;;;;;8.33;6.33;;;;;10.39;81.80;11527.41;4857435;29;46473;-94
2022/11/21 07:58:23;;;;;;;;;25.00;23.33;;;;;10.01;82.00;11237.44;4900402;29;44819;-96
2022/11/21 08:00:55;;;;;;;;;5.33;4.33;;;;;10.71;81.96;10232.03;4905807;29;46759;-96
2022/11/21 08:03:21;;;;;;;;;10.33;9.33;;;;;9.76;81.91;10544.75;4896773;29;45396;-95
2022/11/21 08:05:48;;;;;;;;;11.33;7.33;;;;;9.44;82.10;11773.19;4884241;29;45423;-96
2022/11/21 08:08:14;;;;;;;;;7.00;6.67;;;;;7.62;82.21;11693.38;4896159;29;45494;-95
2022/11/21 08:10:44;;;;;;;;;10.00;10.00;;;;;9.54;81.36;10095.09;4898802;29;45402;-95
2022/11/21 08:13:11;;;;;;;;;11.00;8.00;;;;;10.01;81.58;7571.09;4888530;29;45327;-95
2022/11/21 08:15:36;;;;;;;;;7.00;7.00;;;;;10.67;81.12;5533.97;4893792;29;45549;-95
2022/11/21 08:18:10;;;;;;;;;12.00;8.00;;;;;10.54;81.20;5290.31;4893001;29;44864;-95
2022/11/21 08:20:36;;;;;;;;;11.33;9.67;;;;;8.90;80.74;4808.97;4890368;29;45573;-96
2022/11/21 08:23:02;;;;;;;;;8.33;8.00;;;;;7.69;80.97;5298.66;4893777;29;45199;-96
2022/11/21 08:25:27;;;;;;;;;9.33;8.33;;;;;8.84;80.94;5765.66;4878308;29;45501;-96
2022/11/21 08:28:21;;;;;;;;;13.00;9.67;;;;;7.63;80.64;5499.81;4887184;29;45423;-95
2022/11/21 08:30:46;;;;;;;;;11.67;10.00;;;;;7.69;81.06;6990.00;4895542;29;45473;-96
2022/11/21 08:33:12;;;;;;;;;10.67;9.00;;;;;10.32;81.63;7441.16;4881200;29;45275;-96
2022/11/21 08:35:46;;;;;;;;;11.00;8.33;;;;;7.35;81.41;8227.72;4887998;28;45366;-96
2022/11/21 08:38:12;;;;;;;;;9.67;8.00;;;;;7.68;81.21;7085.69;4892948;29;45491;-96
2022/11/21 08:40:39;;;;;;;;;15.33;13.67;;;;;10.37;81.21;8300.75;4878265;29;47036;-90
2022/11/21 08:43:22;;;;;;;;;14.67;11.00;;;;;8.41;81.45;8150.88;4882233;29;45563;-95
2022/11/21 08:45:47;;;;;;;;;14.00;9.33;;;;;10.38;81.58;9172.97;4883767;29;45445;-94
2022/11/21 08:48:12;;;;;;;;;14.33;13.00;;;;;7.70;81.61;9268.19;4884839;29;45484;-95
2022/11/21 08:50:44;;;;;;;;;11.33;11.33;;;;;7.62;81.38;8631.59;4885759;29;45517;-95
2022/11/21 08:53:16;;;;;;;;;14.00;12.00;;;;;10.32;81.99;9911.34;4867846;29;45345;-96
2022/11/21 08:55:42;;;;;;;;;13.67;10.00;;;;;9.62;81.96;10125.44;4885213;29;45546;-95
2022/11/21 08:58:07;;;;;;;;;13.00;12.67;;;;;9.99;82.26;10549.69;4887131;29;45379;-95
2022/11/21 09:00:36;;;;;;;;;15.67;10.67;;;;;9.57;82.25;12098.88;4877845;29;46291;-96
2022/11/21 09:06:26;;;;;;;;;13.33;12.00;;;;;8.51;82.26;13751.38;4872479;29;45595;-96
2022/11/21 09:08:52;;;;;;;;;15.33;10.00;;;;;8.72;82.42;12449.72;4875404;29;45431;-96
2022/11/21 09:11:17;;;;;;;;;16.67;14.00;;;;;9.27;82.23;13493.69;4883054;29;45437;-94
2022/11/21 09:13:43;;;;;;;;;16.00;11.67;;;;;8.66;82.87;13622.84;4866929;29;45609;-96
2022/11/21 09:22:34;;;;;;;;;12.00;10.00;;;;;7.96;82.35;12210.06;4878013;29;45438;-94
2022/11/21 09:28:04;;;;;;;;;11.00;10.33;;;;;8.12;82.10;12050.41;5297451;23;46366;-96
2022/11/21 09:30:36;;;;;;;;;10.00;10.00;;;;;8.14;82.00;11054.19;4868269;29;45210;-95
2022/11/21 09:47:31;;;;;;;;;10.67;9.67;;;;;8.75;82.03;11060.25;4863805;29;45354;-95
2022/11/21 09:50:06;;;;;;;;;8.00;8.00;;;;;9.68;81.93;10626.31;4855225;29;45360;-96
2022/11/21 09:53:20;;;;;;;;;11.33;8.00;;;;;8.03;82.24;11713.63;5073939;27;1356808;-95
2022/11/21 09:56:02;;;;;;;;;11.00;10.00;;;;;10.67;82.33;12110.03;5085064;27;46550;-94
2022/11/21 09:58:33;;;;;;;;;10.33;10.00;;;;;10.71;81.98;9137.97;5079090;27;45453;-95
2022/11/21 10:00:59;;;;;;;;;7.00;4.00;;;;;8.16;81.49;7762.63;5073210;27;45331;-96
2022/11/21 10:03:28;;;;;;;;;10.00;8.33;;;;;7.81;81.38;8788.22;5083315;27;45516;-94
2022/11/21 10:06:15;;;;;;;;;14.67;9.00;;;;;10.64;81.83;7535.03;5104047;27;45445;-96
2022/11/21 10:08:59;;;;;;;;;;;;;;;;;;;;;
2022/11/21 10:14:52;;;;;;;;;13.33;8.67;;;;;9.50;81.61;7788.59;5092722;27;45429;-95
2022/11/21 10:17:23;;;;;;;;;13.00;12.33;;;;;10.77;81.54;8040.00;5089013;27;45462;-93
2022/11/21 10:20:18;;;;;;;;;9.00;8.00;;;;;8.27;80.89;6250.09;5096121;27;45706;-95
2022/11/21 10:26:32;;;;;;;;;12.00;7.33;;;;;10.86;81.18;5448.09;5090131;27;45525;-95
2022/11/21 10:29:19;;;;;;;;;8.00;8.00;;;;;10.87;80.85;3650.03;5089331;27;45307;-95
2022/11/21 10:31:48;;;;;;;;;11.67;9.33;;;;;8.43;80.28;2465.56;5075752;28;45355;-94
2022/11/21 10:34:19;;;;;;;;;16.33;13.33;;;;;8.69;80.40;1252.41;5088315;27;45478;-95
2022/11/21 10:37:24;;;;;;;;;12.00;8.33;;;;;10.86;80.58;1977.38;5073906;27;47846;-95
2022/11/21 10:39:58;;;;;;;;;10.00;10.00;;;;;8.31;80.45;1482.88;5087483;27;45324;-93
2022/11/21 10:42:51;;;;;;;;;9.00;5.33;;;;;10.84;80.62;386.09;5096808;27;45413;-94
2022/11/21 10:45:18;;;;;;;;;7.00;6.33;;;;;10.78;80.55;-388.72;5078705;27;45351;-95
2022/11/21 10:47:50;;;;;;;;;12.00;8.00;;;;;7.81;80.47;1541.38;5084325;27;46379;-94
2022/11/21 10:50:53;;;;;;;;;7.00;6.00;;;;;10.82;80.56;-973.25;5092291;27;45446;-94
2022/11/21 10:56:26;;;;;;;;;5.00;5.00;;;;;10.04;80.15;-3201.88;5089048;27;45513;-94
2022/11/21 11:07:12;;;;;;;;;7.67;5.00;;;;;10.97;79.42;-8191.34;5324389;22;45518;-96
2022/11/21 11:09:51;;;;;;;;;5.33;4.67;;;;;8.44;79.27;-9381.97;5023518;28;45412;-96
2022/11/21 11:16:16;;;;;;;;;9.00;4.33;;;;;8.66;78.85;-8684.03;4922532;28;45265;-96
2022/11/21 11:22:29;;;;;;;;;5.33;4.00;;;;;8.45;78.55;-11076.06;4908856;28;46053;-95
2022/11/21 11:28:32;;;;;;;;;3.00;3.00;;;;;8.82;79.21;-8832.81;4910531;28;45332;-95
2022/11/21 11:31:01;;;;;;;;;5.00;4.00;;;;;9.49;79.65;-8365.50;4912544;28;45497;-91
2022/11/21 11:33:52;;;;;;;;;5.33;4.00;;;;;10.97;79.32;-9978.28;4905824;28;46714;-93
2022/11/21 11:36:35;;;;;;;;;6.00;6.00;;;;;10.99;79.33;-8681.81;4883692;29;45609;-92
2022/11/21 11:39:15;;;;;;;;;5.00;5.00;;;;;9.90;79.04;-10383.13;4902141;29;45726;-94
2022/11/21 11:53:56;;;;;;;;;8.33;6.33;;;;;8.43;78.72;-12952.28;5044697;28;46507;-96
2022/11/21 11:56:26;;;;;;;;;5.00;5.00;;;;;11.04;78.73;-13828.03;4955752;28;45414;-94
2022/11/21 11:59:02;;;;;;;;;3.00;3.00;;;;;10.91;78.95;-12154.84;4953362;28;45381;-93
2022/11/21 12:16:26;;;;;;;;;5.67;5.33;;;;;11.15;77.86;-19236.38;5640830;22;58003;-93
2022/11/21 12:18:55;;;;;;;;;6.33;5.00;;;;;11.39;77.74;-19516.31;5020320;28;46089;-92
2022/11/21 12:21:22;;;;;;;;;4.00;3.33;;;;;11.37;77.80;-19515.78;5013825;28;45470;-94
2022/11/21 12:23:53;;;;;;;;;7.33;5.33;;;;;11.24;77.75;-19512.25;5007854;28;45289;-95
2022/11/21 12:29:59;;;;;;;;;6.00;6.00;;;;;11.35;77.35;-19515.38;5013121;28;45555;-93
2022/11/21 12:32:54;;;;;;;;;5.33;5.00;;;;;11.03;77.57;-19506.75;5015228;28;45366;-93
2022/11/21 12:39:08;;;;;;;;;6.00;3.00;;;;;11.39;80.47;-3360.69;5019979;28;45411;-94
2022/11/21 12:54:29;;;;;;;;;7.00;7.00;;;;;11.32;82.78;13026.28;5636467;22;45820;-93
2022/11/21 12:56:35;;;;;;;;;6.67;6.00;;;;;10.50;84.23;22896.19;4997975;28;45523;-91
2022/11/21 12:59:03;;;;;;;;;3.33;3.33;;;;;10.79;84.39;22994.72;4972654;28;46907;-91
2022/11/21 13:01:54;;;;;;;;;9.00;7.00;;;;;11.22;84.40;21291.50;4979258;28;45567;-92
2022/11/21 13:04:27;;;;;;;;;6.33;5.33;;;;;8.66;84.21;23212.72;5308242;22;46443;-93
2022/11/21 13:06:56;;;;;;;;;5.67;4.00;;;;;10.01;83.78;21458.25;4986303;28;45302;-94
2022/11/21 13:21:46;;;;;;;;;4.00;4.00;;;;;10.84;86.48;33012.97;5108873;22;45323;-93
2022/11/21 13:24:43;;;;;;;;;4.00;4.00;;;;;10.55;89.24;43362.34;4978072;28;45527;-90
2022/11/21 13:27:40;;;;;;;;;5.00;5.00;;;;;10.33;91.09;49821.84;4959908;28;47076;-90
2022/11/21 13:30:30;;;;;;;;;6.00;3.00;;;;;10.19;90.39;48949.69;4957955;28;45863;-90
2022/11/21 13:44:30;;;;;;;;;2.67;2.67;;;;;10.20;92.12;55832.06;5411949;22;45379;-93
2022/11/21 13:49:40;;;;;;;;;5.67;4.67;;;;;10.00;92.77;59213.16;5539737;22;45828;-91
2022/11/21 14:01:57;;;;;;;;;3.00;3.00;;;;;10.38;91.29;54895.13;4993323;28;45772;-94
2022/11/21 14:04:37;;;;;;;;;3.67;3.67;;;;;9.56;92.16;56518.31;4997876;28;45535;-92
2022/11/21 14:16:06;;;;;;;;;7.00;5.67;;;;;10.50;90.76;54735.91;5011925;28;45930;-91
2022/11/21 14:18:52;;;;;;;;;4.33;4.33;;;;;10.18;91.11;54042.19;5017437;28;45462;-92
2022/11/21 14:21:25;;;;;;;;;5.00;4.00;;;;;10.42;90.74;53084.94;4998695;28;45323;-92
2022/11/21 14:23:56;;;;;;;;;2.67;2.67;;;;;9.12;91.08;53938.94;5205444;22;45830;-93
2022/11/21 14:30:03;;;;;;;;;4.67;3.00;;;;;8.33;92.51;56425.88;4897677;28;46573;-87
2022/11/21 14:32:39;;;;;;;;;4.00;2.67;;;;;9.47;92.48;57886.25;4887607;29;45459;-91
2022/11/21 14:37:45;;;;;;;;;3.00;3.00;;;;;8.27;93.97;61465.22;5702269;22;45770;-87
2022/11/21 14:43:38;;;;;;;;;4.00;4.00;;;;;9.30;94.21;62105.22;4898707;29;45629;-88
2022/11/21 14:46:11;;;;;;;;;2.33;2.33;;;;;7.82;93.23;60600.94;4899102;29;47327;-89
2022/11/21 14:58:41;;;;;;;;;4.67;3.00;;;;;9.70;93.90;61425.28;4998350;28;45783;-87
2022/11/21 15:10:38;;;;;;;;;5.00;4.00;;;;;8.70;94.25;62615.59;5115602;22;45797;-88
2022/11/21 15:13:34;;;;;;;;;3.00;1.67;;;;;8.50;94.36;61973.41;4998265;28;45421;-89
2022/11/21 15:21:23;;;;;;;;;3.00;3.00;;;;;9.14;95.42;63402.19;5249482;22;45776;-86
2022/11/21 15:23:57;;;;;;;;;4.00;3.00;;;;;9.74;95.50;64295.50;4997954;28;45455;-88